sensor_id;sensor_type;location;lat;lon;timestamp;P1;durP1;ratioP1;P2;durP2;ratioP2
32198;SDS011;19221;42.656;21.156;2022-07-23T00:00:56;14.88;;;5.70;;
32198;SDS011;19221;42.656;21.156;2022-07-23T00:03:22;9.38;;;5.53;;
32198;SDS011;19221;42.656;21.156;2022-07-23T00:05:47;11.10;;;5.32;;
32198;SDS011;19221;42.656;21.156;2022-07-23T00:08:13;9.10;;;5.20;;
32198;SDS011;19221;42.656;21.156;2022-07-23T00:10:39;10.38;;;5.30;;
32198;SDS011;19221;42.656;21.156;2022-07-23T00:13:04;12.88;;;5.10;;
32198;SDS011;19221;42.656;21.156;2022-07-23T00:15:30;9.77;;;5.20;;
32198;SDS011;19221;42.656;21.156;2022-07-23T00:17:56;8.27;;;4.70;;
32198;SDS011;19221;42.656;21.156;2022-07-23T00:20:22;11.50;;;5.63;;
32198;SDS011;19221;42.656;21.156;2022-07-23T00:22:51;11.23;;;4.95;;
32198;SDS011;19221;42.656;21.156;2022-07-23T00:25:17;11.32;;;4.68;;
32198;SDS011;19221;42.656;21.156;2022-07-23T00:27:43;8.52;;;4.50;;
32198;SDS011;19221;42.656;21.156;2022-07-23T00:30:09;7.25;;;4.80;;
32198;SDS011;19221;42.656;21.156;2022-07-23T00:32:45;9.20;;;5.13;;
32198;SDS011;19221;42.656;21.156;2022-07-23T00:35:11;14.80;;;5.53;;
32198;SDS011;19221;42.656;21.156;2022-07-23T00:37:36;10.10;;;6.65;;
32198;SDS011;19221;42.656;21.156;2022-07-23T00:40:02;12.20;;;6.47;;
32198;SDS011;19221;42.656;21.156;2022-07-23T00:42:30;8.75;;;5.10;;
32198;SDS011;19221;42.656;21.156;2022-07-23T00:44:56;9.13;;;4.90;;
32198;SDS011;19221;42.656;21.156;2022-07-23T00:47:22;12.95;;;5.55;;
32198;SDS011;19221;42.656;21.156;2022-07-23T00:49:47;9.43;;;5.35;;
32198;SDS011;19221;42.656;21.156;2022-07-23T00:52:13;10.00;;;4.80;;
32198;SDS011;19221;42.656;21.156;2022-07-23T00:54:39;7.97;;;5.47;;
32198;SDS011;19221;42.656;21.156;2022-07-23T00:57:05;7.60;;;5.10;;
32198;SDS011;19221;42.656;21.156;2022-07-23T00:59:31;10.52;;;5.35;;
32198;SDS011;19221;42.656;21.156;2022-07-23T01:01:56;10.50;;;5.18;;
32198;SDS011;19221;42.656;21.156;2022-07-23T01:04:22;8.73;;;4.90;;
32198;SDS011;19221;42.656;21.156;2022-07-23T01:06:48;8.10;;;5.25;;
32198;SDS011;19221;42.656;21.156;2022-07-23T01:09:13;7.40;;;4.85;;
32198;SDS011;19221;42.656;21.156;2022-07-23T01:11:39;10.23;;;5.05;;
32198;SDS011;19221;42.656;21.156;2022-07-23T01:14:13;9.88;;;5.20;;
32198;SDS011;19221;42.656;21.156;2022-07-23T01:16:39;9.77;;;4.85;;
32198;SDS011;19221;42.656;21.156;2022-07-23T01:19:05;8.63;;;5.80;;
32198;SDS011;19221;42.656;21.156;2022-07-23T01:21:45;12.88;;;5.43;;
32198;SDS011;19221;42.656;21.156;2022-07-23T01:24:12;9.35;;;5.22;;
32198;SDS011;19221;42.656;21.156;2022-07-23T01:26:38;9.60;;;5.20;;
32198;SDS011;19221;42.656;21.156;2022-07-23T01:29:04;9.52;;;5.47;;
32198;SDS011;19221;42.656;21.156;2022-07-23T01:31:30;8.77;;;5.10;;
32198;SDS011;19221;42.656;21.156;2022-07-23T01:33:56;10.55;;;5.85;;
32198;SDS011;19221;42.656;21.156;2022-07-23T01:36:22;10.80;;;5.45;;
32198;SDS011;19221;42.656;21.156;2022-07-23T01:38:48;17.02;;;6.13;;
32198;SDS011;19221;42.656;21.156;2022-07-23T01:41:15;11.07;;;5.50;;
32198;SDS011;19221;42.656;21.156;2022-07-23T01:43:41;7.75;;;5.38;;
32198;SDS011;19221;42.656;21.156;2022-07-23T01:46:07;7.70;;;4.60;;
32198;SDS011;19221;42.656;21.156;2022-07-23T01:48:33;8.50;;;4.78;;
32198;SDS011;19221;42.656;21.156;2022-07-23T01:50:58;9.10;;;5.25;;
32198;SDS011;19221;42.656;21.156;2022-07-23T01:53:24;10.73;;;5.20;;
32198;SDS011;19221;42.656;21.156;2022-07-23T01:55:50;10.93;;;6.22;;
32198;SDS011;19221;42.656;21.156;2022-07-23T01:58:16;10.50;;;5.30;;
32198;SDS011;19221;42.656;21.156;2022-07-23T02:00:41;12.50;;;5.63;;
32198;SDS011;19221;42.656;21.156;2022-07-23T02:03:07;9.40;;;5.93;;
32198;SDS011;19221;42.656;21.156;2022-07-23T02:05:33;11.63;;;6.45;;
32198;SDS011;19221;42.656;21.156;2022-07-23T02:07:59;8.68;;;5.93;;
32198;SDS011;19221;42.656;21.156;2022-07-23T02:10:25;10.82;;;5.75;;
32198;SDS011;19221;42.656;21.156;2022-07-23T02:12:51;9.70;;;6.10;;
32198;SDS011;19221;42.656;21.156;2022-07-23T02:15:17;9.45;;;5.93;;
32198;SDS011;19221;42.656;21.156;2022-07-23T02:17:42;15.77;;;5.15;;
32198;SDS011;19221;42.656;21.156;2022-07-23T02:20:09;9.77;;;5.22;;
32198;SDS011;19221;42.656;21.156;2022-07-23T02:22:35;8.73;;;4.85;;
32198;SDS011;19221;42.656;21.156;2022-07-23T02:25:02;8.95;;;4.68;;
32198;SDS011;19221;42.656;21.156;2022-07-23T02:27:27;7.80;;;4.82;;
32198;SDS011;19221;42.656;21.156;2022-07-23T02:29:53;11.55;;;4.88;;
32198;SDS011;19221;42.656;21.156;2022-07-23T02:32:19;8.43;;;4.45;;
32198;SDS011;19221;42.656;21.156;2022-07-23T02:34:46;8.98;;;4.85;;
32198;SDS011;19221;42.656;21.156;2022-07-23T02:37:12;7.35;;;4.70;;
32198;SDS011;19221;42.656;21.156;2022-07-23T02:39:38;7.35;;;5.20;;
32198;SDS011;19221;42.656;21.156;2022-07-23T02:42:04;7.85;;;5.10;;
32198;SDS011;19221;42.656;21.156;2022-07-23T02:44:31;10.45;;;5.95;;
32198;SDS011;19221;42.656;21.156;2022-07-23T02:46:57;8.32;;;5.53;;
32198;SDS011;19221;42.656;21.156;2022-07-23T02:49:22;11.27;;;5.75;;
32198;SDS011;19221;42.656;21.156;2022-07-23T02:51:48;9.55;;;5.40;;
32198;SDS011;19221;42.656;21.156;2022-07-23T02:54:14;9.20;;;5.68;;
32198;SDS011;19221;42.656;21.156;2022-07-23T02:56:39;8.07;;;5.63;;
32198;SDS011;19221;42.656;21.156;2022-07-23T02:59:05;9.52;;;5.43;;
32198;SDS011;19221;42.656;21.156;2022-07-23T03:01:49;11.35;;;5.20;;
32198;SDS011;19221;42.656;21.156;2022-07-23T03:04:15;8.95;;;5.38;;
32198;SDS011;19221;42.656;21.156;2022-07-23T03:06:41;11.90;;;6.60;;
32198;SDS011;19221;42.656;21.156;2022-07-23T03:09:06;12.55;;;7.00;;
32198;SDS011;19221;42.656;21.156;2022-07-23T03:11:32;10.77;;;6.72;;
32198;SDS011;19221;42.656;21.156;2022-07-23T03:13:58;10.05;;;6.72;;
32198;SDS011;19221;42.656;21.156;2022-07-23T03:16:23;12.38;;;6.68;;
32198;SDS011;19221;42.656;21.156;2022-07-23T03:18:49;14.55;;;6.90;;
32198;SDS011;19221;42.656;21.156;2022-07-23T03:21:16;12.98;;;6.72;;
32198;SDS011;19221;42.656;21.156;2022-07-23T03:23:42;11.38;;;6.38;;
32198;SDS011;19221;42.656;21.156;2022-07-23T03:26:08;12.45;;;6.30;;
32198;SDS011;19221;42.656;21.156;2022-07-23T03:28:34;8.77;;;5.15;;
32198;SDS011;19221;42.656;21.156;2022-07-23T03:30:59;9.68;;;4.95;;
32198;SDS011;19221;42.656;21.156;2022-07-23T03:33:25;8.05;;;5.00;;
32198;SDS011;19221;42.656;21.156;2022-07-23T03:35:51;6.63;;;4.90;;
32198;SDS011;19221;42.656;21.156;2022-07-23T03:38:16;6.68;;;4.82;;
32198;SDS011;19221;42.656;21.156;2022-07-23T03:40:42;13.25;;;5.57;;
32198;SDS011;19221;42.656;21.156;2022-07-23T03:43:08;11.52;;;5.78;;
32198;SDS011;19221;42.656;21.156;2022-07-23T03:45:34;9.30;;;5.97;;
32198;SDS011;19221;42.656;21.156;2022-07-23T03:48:00;7.95;;;5.85;;
32198;SDS011;19221;42.656;21.156;2022-07-23T03:50:25;16.17;;;7.32;;
32198;SDS011;19221;42.656;21.156;2022-07-23T03:52:51;13.20;;;7.13;;
32198;SDS011;19221;42.656;21.156;2022-07-23T03:55:17;10.02;;;7.70;;
32198;SDS011;19221;42.656;21.156;2022-07-23T03:57:43;11.82;;;7.45;;
32198;SDS011;19221;42.656;21.156;2022-07-23T04:00:09;14.57;;;7.28;;
32198;SDS011;19221;42.656;21.156;2022-07-23T04:02:35;8.93;;;6.38;;
32198;SDS011;19221;42.656;21.156;2022-07-23T04:05:01;11.90;;;5.78;;
32198;SDS011;19221;42.656;21.156;2022-07-23T04:07:27;10.00;;;5.60;;
32198;SDS011;19221;42.656;21.156;2022-07-23T04:09:53;12.18;;;5.45;;
32198;SDS011;19221;42.656;21.156;2022-07-23T04:12:19;9.27;;;5.82;;
32198;SDS011;19221;42.656;21.156;2022-07-23T04:14:45;9.25;;;5.72;;
32198;SDS011;19221;42.656;21.156;2022-07-23T04:17:11;14.25;;;5.68;;
32198;SDS011;19221;42.656;21.156;2022-07-23T04:19:37;10.93;;;5.25;;
32198;SDS011;19221;42.656;21.156;2022-07-23T04:22:06;19.25;;;10.80;;
32198;SDS011;19221;42.656;21.156;2022-07-23T04:24:32;16.13;;;10.05;;
32198;SDS011;19221;42.656;21.156;2022-07-23T04:26:58;8.82;;;5.82;;
32198;SDS011;19221;42.656;21.156;2022-07-23T04:29:23;11.73;;;5.13;;
32198;SDS011;19221;42.656;21.156;2022-07-23T04:31:49;14.68;;;5.50;;
32198;SDS011;19221;42.656;21.156;2022-07-23T04:34:15;9.45;;;4.85;;
32198;SDS011;19221;42.656;21.156;2022-07-23T04:36:41;13.00;;;4.95;;
32198;SDS011;19221;42.656;21.156;2022-07-23T04:39:06;6.03;;;4.35;;
32198;SDS011;19221;42.656;21.156;2022-07-23T04:41:32;6.50;;;4.50;;
32198;SDS011;19221;42.656;21.156;2022-07-23T04:43:59;11.65;;;4.72;;
32198;SDS011;19221;42.656;21.156;2022-07-23T04:46:25;11.27;;;4.55;;
32198;SDS011;19221;42.656;21.156;2022-07-23T04:48:51;10.00;;;4.95;;
32198;SDS011;19221;42.656;21.156;2022-07-23T04:51:17;7.45;;;5.07;;
32198;SDS011;19221;42.656;21.156;2022-07-23T04:53:42;9.10;;;5.65;;
32198;SDS011;19221;42.656;21.156;2022-07-23T04:56:08;10.38;;;5.60;;
32198;SDS011;19221;42.656;21.156;2022-07-23T04:58:34;8.57;;;5.45;;
32198;SDS011;19221;42.656;21.156;2022-07-23T05:01:00;11.35;;;6.00;;
32198;SDS011;19221;42.656;21.156;2022-07-23T05:03:25;13.75;;;6.30;;
32198;SDS011;19221;42.656;21.156;2022-07-23T05:05:51;8.80;;;5.85;;
32198;SDS011;19221;42.656;21.156;2022-07-23T05:08:17;8.30;;;5.60;;
32198;SDS011;19221;42.656;21.156;2022-07-23T05:10:42;6.68;;;5.13;;
32198;SDS011;19221;42.656;21.156;2022-07-23T05:13:08;8.98;;;5.15;;
32198;SDS011;19221;42.656;21.156;2022-07-23T05:15:34;9.95;;;5.50;;
32198;SDS011;19221;42.656;21.156;2022-07-23T05:17:59;13.00;;;5.45;;
32198;SDS011;19221;42.656;21.156;2022-07-23T05:20:25;12.20;;;5.57;;
32198;SDS011;19221;42.656;21.156;2022-07-23T05:22:51;10.85;;;5.68;;
32198;SDS011;19221;42.656;21.156;2022-07-23T05:25:17;10.10;;;4.93;;
32198;SDS011;19221;42.656;21.156;2022-07-23T05:27:43;9.90;;;5.70;;
32198;SDS011;19221;42.656;21.156;2022-07-23T05:30:08;17.60;;;6.25;;
32198;SDS011;19221;42.656;21.156;2022-07-23T05:32:34;8.27;;;5.68;;
32198;SDS011;19221;42.656;21.156;2022-07-23T05:35:02;11.07;;;6.20;;
32198;SDS011;19221;42.656;21.156;2022-07-23T05:37:28;12.95;;;5.78;;
32198;SDS011;19221;42.656;21.156;2022-07-23T05:39:54;12.65;;;6.75;;
32198;SDS011;19221;42.656;21.156;2022-07-23T05:42:19;13.60;;;6.05;;
32198;SDS011;19221;42.656;21.156;2022-07-23T05:44:45;13.98;;;6.53;;
32198;SDS011;19221;42.656;21.156;2022-07-23T05:47:11;14.30;;;6.20;;
32198;SDS011;19221;42.656;21.156;2022-07-23T05:49:37;13.40;;;6.80;;
32198;SDS011;19221;42.656;21.156;2022-07-23T05:52:07;14.55;;;8.73;;
32198;SDS011;19221;42.656;21.156;2022-07-23T05:54:36;14.15;;;6.85;;
32198;SDS011;19221;42.656;21.156;2022-07-23T05:57:03;12.07;;;7.15;;
32198;SDS011;19221;42.656;21.156;2022-07-23T05:59:29;15.68;;;8.02;;
32198;SDS011;19221;42.656;21.156;2022-07-23T06:01:55;14.05;;;7.88;;
32198;SDS011;19221;42.656;21.156;2022-07-23T06:04:20;12.48;;;7.07;;
32198;SDS011;19221;42.656;21.156;2022-07-23T06:06:46;14.32;;;7.47;;
32198;SDS011;19221;42.656;21.156;2022-07-23T06:09:12;15.27;;;7.53;;
32198;SDS011;19221;42.656;21.156;2022-07-23T06:11:39;13.48;;;6.70;;
32198;SDS011;19221;42.656;21.156;2022-07-23T06:14:05;12.15;;;6.57;;
32198;SDS011;19221;42.656;21.156;2022-07-23T06:16:30;11.80;;;6.30;;
32198;SDS011;19221;42.656;21.156;2022-07-23T06:18:56;12.80;;;6.60;;
32198;SDS011;19221;42.656;21.156;2022-07-23T06:21:22;9.52;;;5.78;;
32198;SDS011;19221;42.656;21.156;2022-07-23T06:23:48;10.63;;;5.60;;
32198;SDS011;19221;42.656;21.156;2022-07-23T06:26:13;11.38;;;5.93;;
32198;SDS011;19221;42.656;21.156;2022-07-23T06:28:39;9.23;;;5.90;;
32198;SDS011;19221;42.656;21.156;2022-07-23T06:31:05;13.73;;;5.53;;
32198;SDS011;19221;42.656;21.156;2022-07-23T06:33:30;13.10;;;6.80;;
32198;SDS011;19221;42.656;21.156;2022-07-23T06:35:56;10.27;;;6.15;;
32198;SDS011;19221;42.656;21.156;2022-07-23T06:38:22;14.40;;;6.22;;
32198;SDS011;19221;42.656;21.156;2022-07-23T06:40:47;12.32;;;6.43;;
32198;SDS011;19221;42.656;21.156;2022-07-23T06:43:13;11.63;;;6.05;;
32198;SDS011;19221;42.656;21.156;2022-07-23T06:45:39;9.38;;;5.57;;
32198;SDS011;19221;42.656;21.156;2022-07-23T06:48:07;13.15;;;5.97;;
32198;SDS011;19221;42.656;21.156;2022-07-23T06:50:33;12.30;;;6.43;;
32198;SDS011;19221;42.656;21.156;2022-07-23T06:52:59;10.75;;;5.95;;
32198;SDS011;19221;42.656;21.156;2022-07-23T06:55:25;13.80;;;6.90;;
32198;SDS011;19221;42.656;21.156;2022-07-23T06:57:51;15.07;;;6.50;;
32198;SDS011;19221;42.656;21.156;2022-07-23T07:00:17;10.20;;;6.30;;
32198;SDS011;19221;42.656;21.156;2022-07-23T07:02:43;16.48;;;6.28;;
32198;SDS011;19221;42.656;21.156;2022-07-23T07:05:08;11.38;;;6.60;;
32198;SDS011;19221;42.656;21.156;2022-07-23T07:07:34;12.40;;;7.03;;
32198;SDS011;19221;42.656;21.156;2022-07-23T07:10:00;11.88;;;6.25;;
32198;SDS011;19221;42.656;21.156;2022-07-23T07:12:26;11.13;;;6.30;;
32198;SDS011;19221;42.656;21.156;2022-07-23T07:14:51;11.73;;;6.50;;
32198;SDS011;19221;42.656;21.156;2022-07-23T07:17:18;14.60;;;7.15;;
32198;SDS011;19221;42.656;21.156;2022-07-23T07:19:44;12.15;;;6.30;;
32198;SDS011;19221;42.656;21.156;2022-07-23T07:22:10;15.55;;;6.38;;
32198;SDS011;19221;42.656;21.156;2022-07-23T07:24:35;18.55;;;7.60;;
32198;SDS011;19221;42.656;21.156;2022-07-23T07:27:01;14.82;;;6.72;;
32198;SDS011;19221;42.656;21.156;2022-07-23T07:29:27;16.67;;;6.82;;
32198;SDS011;19221;42.656;21.156;2022-07-23T07:31:53;14.73;;;7.07;;
32198;SDS011;19221;42.656;21.156;2022-07-23T07:34:19;21.42;;;7.88;;
32198;SDS011;19221;42.656;21.156;2022-07-23T07:36:45;95.90;;;17.20;;
32198;SDS011;19221;42.656;21.156;2022-07-23T07:39:10;29.83;;;8.80;;
32198;SDS011;19221;42.656;21.156;2022-07-23T07:41:36;26.60;;;8.15;;
32198;SDS011;19221;42.656;21.156;2022-07-23T07:44:02;28.92;;;8.15;;
32198;SDS011;19221;42.656;21.156;2022-07-23T07:46:28;27.98;;;8.45;;
32198;SDS011;19221;42.656;21.156;2022-07-23T07:48:53;22.02;;;8.60;;
32198;SDS011;19221;42.656;21.156;2022-07-23T07:51:19;17.67;;;8.07;;
32198;SDS011;19221;42.656;21.156;2022-07-23T07:53:45;26.38;;;8.30;;
32198;SDS011;19221;42.656;21.156;2022-07-23T07:56:11;35.42;;;8.88;;
32198;SDS011;19221;42.656;21.156;2022-07-23T07:58:36;23.95;;;8.80;;
32198;SDS011;19221;42.656;21.156;2022-07-23T08:01:02;23.45;;;9.05;;
32198;SDS011;19221;42.656;21.156;2022-07-23T08:03:28;25.90;;;8.88;;
32198;SDS011;19221;42.656;21.156;2022-07-23T08:05:54;24.98;;;8.98;;
32198;SDS011;19221;42.656;21.156;2022-07-23T08:08:19;18.75;;;8.48;;
32198;SDS011;19221;42.656;21.156;2022-07-23T08:10:45;22.67;;;9.00;;
32198;SDS011;19221;42.656;21.156;2022-07-23T08:13:14;23.73;;;9.07;;
32198;SDS011;19221;42.656;21.156;2022-07-23T08:15:40;23.65;;;8.30;;
32198;SDS011;19221;42.656;21.156;2022-07-23T08:18:06;25.60;;;7.97;;
32198;SDS011;19221;42.656;21.156;2022-07-23T08:20:32;20.77;;;8.68;;
32198;SDS011;19221;42.656;21.156;2022-07-23T08:22:58;24.45;;;9.15;;
32198;SDS011;19221;42.656;21.156;2022-07-23T08:25:29;25.65;;;9.23;;
32198;SDS011;19221;42.656;21.156;2022-07-23T08:27:55;20.80;;;8.70;;
32198;SDS011;19221;42.656;21.156;2022-07-23T08:30:21;20.63;;;8.40;;
32198;SDS011;19221;42.656;21.156;2022-07-23T08:32:51;20.25;;;8.48;;
32198;SDS011;19221;42.656;21.156;2022-07-23T08:35:17;25.13;;;8.90;;
32198;SDS011;19221;42.656;21.156;2022-07-23T08:37:43;18.85;;;7.32;;
32198;SDS011;19221;42.656;21.156;2022-07-23T08:40:09;25.42;;;8.57;;
32198;SDS011;19221;42.656;21.156;2022-07-23T08:42:35;25.20;;;7.97;;
32198;SDS011;19221;42.656;21.156;2022-07-23T08:45:03;25.02;;;8.77;;
32198;SDS011;19221;42.656;21.156;2022-07-23T08:47:29;21.42;;;7.25;;
32198;SDS011;19221;42.656;21.156;2022-07-23T08:49:56;18.83;;;7.88;;
32198;SDS011;19221;42.656;21.156;2022-07-23T08:52:24;23.65;;;7.38;;
32198;SDS011;19221;42.656;21.156;2022-07-23T08:54:49;21.25;;;8.00;;
32198;SDS011;19221;42.656;21.156;2022-07-23T08:57:15;17.80;;;7.25;;
32198;SDS011;19221;42.656;21.156;2022-07-23T08:59:41;19.92;;;8.48;;
32198;SDS011;19221;42.656;21.156;2022-07-23T09:02:07;23.70;;;8.23;;
32198;SDS011;19221;42.656;21.156;2022-07-23T09:04:32;23.23;;;8.63;;
32198;SDS011;19221;42.656;21.156;2022-07-23T09:06:58;22.98;;;7.82;;
32198;SDS011;19221;42.656;21.156;2022-07-23T09:09:24;22.70;;;7.88;;
32198;SDS011;19221;42.656;21.156;2022-07-23T09:12:02;19.20;;;7.80;;
32198;SDS011;19221;42.656;21.156;2022-07-23T09:14:42;11.75;;;7.38;;
32198;SDS011;19221;42.656;21.156;2022-07-23T09:17:09;24.65;;;7.70;;
32198;SDS011;19221;42.656;21.156;2022-07-23T09:19:35;17.48;;;8.27;;
32198;SDS011;19221;42.656;21.156;2022-07-23T09:22:20;19.83;;;7.70;;
32198;SDS011;19221;42.656;21.156;2022-07-23T09:25:03;18.80;;;8.00;;
32198;SDS011;19221;42.656;21.156;2022-07-23T09:27:51;19.95;;;7.50;;
32198;SDS011;19221;42.656;21.156;2022-07-23T09:30:18;18.55;;;7.70;;
32198;SDS011;19221;42.656;21.156;2022-07-23T09:32:44;21.67;;;8.10;;
32198;SDS011;19221;42.656;21.156;2022-07-23T09:38:09;20.55;;;7.85;;
32198;SDS011;19221;42.656;21.156;2022-07-23T09:40:35;18.25;;;7.60;;
32198;SDS011;19221;42.656;21.156;2022-07-23T09:43:00;19.13;;;8.60;;
32198;SDS011;19221;42.656;21.156;2022-07-23T09:45:26;19.58;;;7.80;;
32198;SDS011;19221;42.656;21.156;2022-07-23T09:47:56;18.63;;;7.63;;
32198;SDS011;19221;42.656;21.156;2022-07-23T09:50:34;23.38;;;9.73;;
32198;SDS011;19221;42.656;21.156;2022-07-23T09:53:00;16.77;;;6.35;;
32198;SDS011;19221;42.656;21.156;2022-07-23T09:55:31;17.20;;;7.28;;
32198;SDS011;19221;42.656;21.156;2022-07-23T09:58:00;14.85;;;6.97;;
32198;SDS011;19221;42.656;21.156;2022-07-23T10:00:26;11.30;;;6.47;;
32198;SDS011;19221;42.656;21.156;2022-07-23T10:02:52;15.77;;;6.40;;
32198;SDS011;19221;42.656;21.156;2022-07-23T10:05:19;14.52;;;6.70;;
32198;SDS011;19221;42.656;21.156;2022-07-23T10:07:45;17.77;;;9.07;;
32198;SDS011;19221;42.656;21.156;2022-07-23T10:10:11;26.23;;;7.82;;
32198;SDS011;19221;42.656;21.156;2022-07-23T10:12:39;21.23;;;7.32;;
32198;SDS011;19221;42.656;21.156;2022-07-23T10:15:10;22.35;;;7.43;;
32198;SDS011;19221;42.656;21.156;2022-07-23T10:17:36;16.88;;;6.68;;
32198;SDS011;19221;42.656;21.156;2022-07-23T10:20:02;11.30;;;5.75;;
32198;SDS011;19221;42.656;21.156;2022-07-23T10:22:29;12.50;;;6.40;;
32198;SDS011;19221;42.656;21.156;2022-07-23T10:30:26;15.73;;;7.13;;
32198;SDS011;19221;42.656;21.156;2022-07-23T10:32:58;9.95;;;5.53;;
32198;SDS011;19221;42.656;21.156;2022-07-23T10:35:38;12.70;;;6.07;;
32198;SDS011;19221;42.656;21.156;2022-07-23T10:38:07;17.70;;;7.03;;
32198;SDS011;19221;42.656;21.156;2022-07-23T10:40:36;15.83;;;7.50;;
32198;SDS011;19221;42.656;21.156;2022-07-23T10:43:02;12.75;;;5.82;;
32198;SDS011;19221;42.656;21.156;2022-07-23T10:45:38;13.25;;;7.30;;
32198;SDS011;19221;42.656;21.156;2022-07-23T10:48:20;9.68;;;5.60;;
32198;SDS011;19221;42.656;21.156;2022-07-23T10:53:52;15.57;;;5.90;;
32198;SDS011;19221;42.656;21.156;2022-07-23T10:56:16;16.02;;;6.45;;
32198;SDS011;19221;42.656;21.156;2022-07-23T10:58:46;15.05;;;5.70;;
32198;SDS011;19221;42.656;21.156;2022-07-23T11:03:56;14.15;;;8.15;;
32198;SDS011;19221;42.656;21.156;2022-07-23T11:06:22;13.88;;;7.15;;
32198;SDS011;19221;42.656;21.156;2022-07-23T11:08:47;19.92;;;8.82;;
32198;SDS011;19221;42.656;21.156;2022-07-23T11:11:33;25.05;;;11.60;;
32198;SDS011;19221;42.656;21.156;2022-07-23T11:13:59;12.00;;;7.50;;
32198;SDS011;19221;42.656;21.156;2022-07-23T11:16:24;20.88;;;11.15;;
32198;SDS011;19221;42.656;21.156;2022-07-23T11:18:59;15.10;;;7.13;;
32198;SDS011;19221;42.656;21.156;2022-07-23T11:23:57;17.95;;;7.60;;
32198;SDS011;19221;42.656;21.156;2022-07-23T11:31:54;20.10;;;6.20;;
32198;SDS011;19221;42.656;21.156;2022-07-23T11:36:58;18.40;;;10.65;;
32198;SDS011;19221;42.656;21.156;2022-07-23T11:39:26;14.35;;;5.93;;
32198;SDS011;19221;42.656;21.156;2022-07-23T11:41:52;12.75;;;7.80;;
32198;SDS011;19221;42.656;21.156;2022-07-23T11:47:10;14.23;;;5.88;;
32198;SDS011;19221;42.656;21.156;2022-07-23T11:49:37;13.30;;;5.85;;
32198;SDS011;19221;42.656;21.156;2022-07-23T11:54:32;14.10;;;6.25;;
32198;SDS011;19221;42.656;21.156;2022-07-23T11:56:58;20.50;;;7.65;;
32198;SDS011;19221;42.656;21.156;2022-07-23T11:59:24;18.65;;;6.13;;
32198;SDS011;19221;42.656;21.156;2022-07-23T12:02:01;13.23;;;6.15;;
32198;SDS011;19221;42.656;21.156;2022-07-23T12:04:44;14.15;;;5.60;;
32198;SDS011;19221;42.656;21.156;2022-07-23T12:07:30;12.30;;;4.93;;
32198;SDS011;19221;42.656;21.156;2022-07-23T12:09:57;13.65;;;6.00;;
32198;SDS011;19221;42.656;21.156;2022-07-23T12:12:24;15.48;;;5.38;;
32198;SDS011;19221;42.656;21.156;2022-07-23T12:14:59;14.27;;;6.63;;
32198;SDS011;19221;42.656;21.156;2022-07-23T12:17:29;12.10;;;5.40;;
32198;SDS011;19221;42.656;21.156;2022-07-23T12:19:56;11.67;;;5.60;;
32198;SDS011;19221;42.656;21.156;2022-07-23T12:22:25;18.40;;;5.85;;
32198;SDS011;19221;42.656;21.156;2022-07-23T12:24:52;12.23;;;5.70;;
32198;SDS011;19221;42.656;21.156;2022-07-23T12:27:20;12.13;;;5.80;;
32198;SDS011;19221;42.656;21.156;2022-07-23T12:29:46;14.10;;;5.70;;
32198;SDS011;19221;42.656;21.156;2022-07-23T12:34:44;17.50;;;5.78;;
32198;SDS011;19221;42.656;21.156;2022-07-23T12:40:21;14.45;;;5.85;;
32198;SDS011;19221;42.656;21.156;2022-07-23T12:42:47;14.48;;;6.03;;
32198;SDS011;19221;42.656;21.156;2022-07-23T12:45:13;14.15;;;6.10;;
32198;SDS011;19221;42.656;21.156;2022-07-23T12:47:56;12.32;;;6.18;;
32198;SDS011;19221;42.656;21.156;2022-07-23T12:50:33;14.88;;;5.60;;
32198;SDS011;19221;42.656;21.156;2022-07-23T12:53:19;15.18;;;6.18;;
32198;SDS011;19221;42.656;21.156;2022-07-23T12:55:47;15.13;;;5.80;;
32198;SDS011;19221;42.656;21.156;2022-07-23T12:58:16;11.80;;;5.38;;
32198;SDS011;19221;42.656;21.156;2022-07-23T13:03:36;15.60;;;5.93;;
32198;SDS011;19221;42.656;21.156;2022-07-23T13:06:03;14.20;;;5.88;;
32198;SDS011;19221;42.656;21.156;2022-07-23T13:08:29;12.80;;;6.00;;
32198;SDS011;19221;42.656;21.156;2022-07-23T13:10:56;8.75;;;5.10;;
32198;SDS011;19221;42.656;21.156;2022-07-23T13:13:25;12.43;;;5.35;;
32198;SDS011;19221;42.656;21.156;2022-07-23T13:15:51;14.45;;;5.93;;
32198;SDS011;19221;42.656;21.156;2022-07-23T13:18:17;14.07;;;6.50;;
32198;SDS011;19221;42.656;21.156;2022-07-23T13:20:44;10.52;;;6.13;;
32198;SDS011;19221;42.656;21.156;2022-07-23T13:23:10;15.55;;;5.57;;
32198;SDS011;19221;42.656;21.156;2022-07-23T13:25:35;7.90;;;5.40;;
32198;SDS011;19221;42.656;21.156;2022-07-23T13:28:01;10.00;;;4.90;;
32198;SDS011;19221;42.656;21.156;2022-07-23T13:30:27;13.82;;;5.20;;
32198;SDS011;19221;42.656;21.156;2022-07-23T13:32:53;10.68;;;5.70;;
32198;SDS011;19221;42.656;21.156;2022-07-23T13:35:18;9.23;;;5.15;;
32198;SDS011;19221;42.656;21.156;2022-07-23T13:37:44;8.32;;;5.13;;
32198;SDS011;19221;42.656;21.156;2022-07-23T13:40:10;12.00;;;5.65;;
32198;SDS011;19221;42.656;21.156;2022-07-23T13:42:36;13.15;;;6.85;;
32198;SDS011;19221;42.656;21.156;2022-07-23T13:45:05;11.15;;;5.45;;
32198;SDS011;19221;42.656;21.156;2022-07-23T13:47:31;10.40;;;5.53;;
32198;SDS011;19221;42.656;21.156;2022-07-23T13:49:57;14.68;;;6.60;;
32198;SDS011;19221;42.656;21.156;2022-07-23T13:52:23;10.98;;;5.78;;
32198;SDS011;19221;42.656;21.156;2022-07-23T13:54:49;10.98;;;5.60;;
32198;SDS011;19221;42.656;21.156;2022-07-23T13:57:15;11.73;;;5.72;;
32198;SDS011;19221;42.656;21.156;2022-07-23T13:59:40;10.77;;;5.47;;
32198;SDS011;19221;42.656;21.156;2022-07-23T14:02:06;9.48;;;5.45;;
32198;SDS011;19221;42.656;21.156;2022-07-23T14:04:32;7.63;;;4.65;;
32198;SDS011;19221;42.656;21.156;2022-07-23T14:06:58;9.85;;;5.25;;
32198;SDS011;19221;42.656;21.156;2022-07-23T14:09:23;11.52;;;5.55;;
32198;SDS011;19221;42.656;21.156;2022-07-23T14:11:49;13.80;;;6.30;;
32198;SDS011;19221;42.656;21.156;2022-07-23T14:14:16;9.57;;;5.47;;
32198;SDS011;19221;42.656;21.156;2022-07-23T14:16:42;13.68;;;6.15;;
32198;SDS011;19221;42.656;21.156;2022-07-23T14:19:08;12.35;;;5.40;;
32198;SDS011;19221;42.656;21.156;2022-07-23T14:21:34;15.70;;;5.47;;
32198;SDS011;19221;42.656;21.156;2022-07-23T14:24:00;20.05;;;6.55;;
32198;SDS011;19221;42.656;21.156;2022-07-23T14:26:25;23.15;;;11.88;;
32198;SDS011;19221;42.656;21.156;2022-07-23T14:28:51;15.93;;;7.80;;
32198;SDS011;19221;42.656;21.156;2022-07-23T14:31:17;10.85;;;5.78;;
32198;SDS011;19221;42.656;21.156;2022-07-23T14:33:43;12.48;;;5.75;;
32198;SDS011;19221;42.656;21.156;2022-07-23T14:36:08;10.55;;;6.13;;
32198;SDS011;19221;42.656;21.156;2022-07-23T14:38:34;8.60;;;5.80;;
32198;SDS011;19221;42.656;21.156;2022-07-23T14:41:00;9.18;;;5.22;;
32198;SDS011;19221;42.656;21.156;2022-07-23T14:43:25;13.18;;;5.40;;
32198;SDS011;19221;42.656;21.156;2022-07-23T14:45:51;9.93;;;6.20;;
32198;SDS011;19221;42.656;21.156;2022-07-23T14:48:17;10.70;;;5.97;;
32198;SDS011;19221;42.656;21.156;2022-07-23T14:50:43;12.13;;;5.50;;
32198;SDS011;19221;42.656;21.156;2022-07-23T14:53:08;11.45;;;5.65;;
32198;SDS011;19221;42.656;21.156;2022-07-23T14:55:34;9.60;;;5.82;;
32198;SDS011;19221;42.656;21.156;2022-07-23T14:58:00;9.15;;;5.38;;
32198;SDS011;19221;42.656;21.156;2022-07-23T15:00:26;9.00;;;5.57;;